createdAt,value
2017-05-31T00:00:56.814Z,5.38
2017-05-31T00:03:25.873Z,4.88
2017-05-31T00:05:54.955Z,4.80
2017-05-31T00:08:23.996Z,4.80
2017-05-31T00:10:53.075Z,4.74
2017-05-31T00:13:22.134Z,5.34
2017-05-31T00:15:50.433Z,4.58
2017-05-31T00:18:18.920Z,5.00
2017-05-31T00:20:48.016Z,5.96
2017-05-31T00:23:17.080Z,6.28
2017-05-31T00:25:46.128Z,5.18
2017-05-31T00:28:14.423Z,4.22
2017-05-31T00:30:43.497Z,4.48
2017-05-31T00:33:12.569Z,5.10
2017-05-31T00:35:41.637Z,4.70
2017-05-31T00:38:10.808Z,5.16
2017-05-31T00:40:39.929Z,5.40
2017-05-31T00:43:08.271Z,5.52
2017-05-31T00:45:37.311Z,5.42
2017-05-31T00:48:05.604Z,5.34
2017-05-31T00:50:34.668Z,4.80
2017-05-31T00:53:02.984Z,5.46
2017-05-31T00:55:31.271Z,6.34
2017-05-31T00:58:00.333Z,5.98
2017-05-31T01:00:29.388Z,5.70
2017-05-31T01:02:58.457Z,6.50
2017-05-31T01:05:26.765Z,5.34
2017-05-31T01:07:55.827Z,6.30
2017-05-31T01:10:24.877Z,6.10
2017-05-31T01:12:53.936Z,6.10
2017-05-31T01:15:22.267Z,6.94
2017-05-31T01:17:51.570Z,6.00
2017-05-31T01:20:20.653Z,5.80
2017-05-31T01:22:49.121Z,6.28
2017-05-31T01:25:18.247Z,6.60
2017-05-31T01:27:47.290Z,6.38
2017-05-31T01:30:16.335Z,7.04
2017-05-31T01:32:44.668Z,6.24
2017-05-31T01:35:13.737Z,6.42
2017-05-31T01:37:42.785Z,6.74
2017-05-31T01:40:11.889Z,7.42
2017-05-31T01:42:40.955Z,7.46
2017-05-31T01:45:09.272Z,5.94
2017-05-31T01:47:38.336Z,7.04
2017-05-31T01:50:07.394Z,7.72
2017-05-31T01:52:36.430Z,7.60
2017-05-31T01:55:05.760Z,7.34
2017-05-31T01:57:34.833Z,6.62
2017-05-31T02:00:03.934Z,6.92
2017-05-31T02:02:32.239Z,6.30
2017-05-31T02:05:01.284Z,6.94
2017-05-31T02:07:29.577Z,6.88
2017-05-31T02:09:58.620Z,7.44
2017-05-31T02:12:27.675Z,7.34
2017-05-31T02:14:56.751Z,8.48
2017-05-31T02:17:25.029Z,7.06
2017-05-31T02:19:54.148Z,7.30
2017-05-31T02:22:22.467Z,7.88
2017-05-31T02:24:51.145Z,8.12
2017-05-31T02:27:20.198Z,7.80
2017-05-31T02:29:49.278Z,7.40
2017-05-31T02:32:18.365Z,9.06
2017-05-31T02:34:46.684Z,8.46
2017-05-31T02:37:16.037Z,8.06
2017-05-31T02:39:45.085Z,7.66
2017-05-31T02:42:13.402Z,8.32
2017-05-31T02:44:41.693Z,10.18
2017-05-31T02:47:10.763Z,7.84
2017-05-31T02:49:39.819Z,8.22
2017-05-31T02:52:08.112Z,7.74
2017-05-31T02:54:36.428Z,8.12
2017-05-31T02:57:05.488Z,8.02
2017-05-31T02:59:34.604Z,9.02
2017-05-31T03:02:03.681Z,7.22
2017-05-31T03:04:32.750Z,8.80
2017-05-31T03:07:01.816Z,8.54
2017-05-31T03:09:30.863Z,8.48
2017-05-31T03:11:59.937Z,8.36
2017-05-31T03:14:28.277Z,8.48
2017-05-31T03:16:57.356Z,8.84
2017-05-31T03:19:26.403Z,8.68
2017-05-31T03:21:54.709Z,8.44
2017-05-31T03:24:23.780Z,8.36
2017-05-31T03:26:52.080Z,8.50
2017-05-31T03:29:21.163Z,8.84
2017-05-31T03:31:49.452Z,8.74
2017-05-31T03:34:17.825Z,8.66
2017-05-31T03:36:46.900Z,8.60
2017-05-31T03:39:16.016Z,10.26
2017-05-31T03:41:44.309Z,8.84
2017-05-31T03:44:12.637Z,10.04
2017-05-31T03:46:40.933Z,8.38
2017-05-31T03:49:10.294Z,8.86
2017-05-31T03:51:39.357Z,9.60
2017-05-31T03:54:08.455Z,9.10
2017-05-31T03:56:36.775Z,9.00
2017-05-31T03:59:05.948Z,8.92
2017-05-31T04:01:34.256Z,8.40
2017-05-31T04:04:03.360Z,8.76
2017-05-31T04:06:31.660Z,8.94
2017-05-31T04:09:00.759Z,8.98
2017-05-31T04:11:29.037Z,9.08
2017-05-31T04:13:58.084Z,9.30
2017-05-31T04:16:26.381Z,8.14
2017-05-31T04:18:55.452Z,8.20
2017-05-31T04:21:24.526Z,7.94
2017-05-31T04:23:53.587Z,8.42
2017-05-31T04:26:22.640Z,8.80
2017-05-31T04:28:51.756Z,7.48
2017-05-31T04:31:20.805Z,7.86
2017-05-31T04:33:49.225Z,8.76
2017-05-31T04:36:18.544Z,9.08
2017-05-31T04:38:48.024Z,8.48
2017-05-31T04:41:17.089Z,8.34
2017-05-31T04:43:45.372Z,9.36
2017-05-31T04:46:13.681Z,9.18
2017-05-31T04:48:42.792Z,8.60
2017-05-31T04:51:11.837Z,8.78
2017-05-31T04:53:40.120Z,9.18
2017-05-31T04:56:09.224Z,8.24
2017-05-31T04:58:38.300Z,10.82
2017-05-31T05:01:06.600Z,8.98
2017-05-31T05:03:34.911Z,9.40
2017-05-31T05:06:03.229Z,9.72
2017-05-31T05:08:32.414Z,9.70
2017-05-31T05:11:01.464Z,9.46
2017-05-31T05:13:30.517Z,10.06
2017-05-31T05:15:58.822Z,9.80
2017-05-31T05:18:27.867Z,9.66
2017-05-31T05:20:56.993Z,9.68
2017-05-31T05:23:26.049Z,10.66
2017-05-31T05:25:57.052Z,8.62
2017-05-31T05:28:26.109Z,10.36
2017-05-31T05:30:54.446Z,9.72
2017-05-31T05:33:23.516Z,9.68
2017-05-31T05:35:52.576Z,8.56
2017-05-31T05:38:21.656Z,9.68
2017-05-31T05:40:50.452Z,9.30
2017-05-31T05:43:19.489Z,10.00
2017-05-31T05:45:48.574Z,9.56
2017-05-31T05:48:17.629Z,8.86
2017-05-31T05:50:46.679Z,9.28
2017-05-31T05:53:15.012Z,9.34
2017-05-31T05:55:44.072Z,8.80
2017-05-31T05:58:12.430Z,8.38
2017-05-31T06:00:41.534Z,9.64
2017-05-31T06:03:09.855Z,9.06
2017-05-31T06:05:38.900Z,9.38
2017-05-31T06:08:07.364Z,9.36
2017-05-31T06:10:36.420Z,10.18
2017-05-31T06:13:04.713Z,9.64
2017-05-31T06:15:34.393Z,9.98
2017-05-31T06:18:03.485Z,9.58
2017-05-31T06:20:32.564Z,9.00
2017-05-31T06:23:01.630Z,9.52
2017-05-31T06:25:30.684Z,8.56
2017-05-31T06:27:59.769Z,9.04
2017-05-31T06:30:28.817Z,10.46
2017-05-31T06:32:57.128Z,9.96
2017-05-31T06:35:26.211Z,10.54
2017-05-31T06:37:54.496Z,9.12
2017-05-31T06:40:23.581Z,10.22
2017-05-31T06:42:52.656Z,10.10
2017-05-31T06:45:21.969Z,11.68
2017-05-31T06:47:50.272Z,9.54
2017-05-31T06:50:19.330Z,11.20
2017-05-31T06:52:48.388Z,9.88
2017-05-31T06:55:16.701Z,12.00
2017-05-31T06:57:45.757Z,10.40
2017-05-31T07:00:14.817Z,10.32
2017-05-31T07:02:43.132Z,10.04
2017-05-31T07:05:12.208Z,11.22
2017-05-31T07:07:41.281Z,11.08
2017-05-31T07:10:10.379Z,10.76
2017-05-31T07:12:39.431Z,11.32
2017-05-31T07:15:07.777Z,11.82
2017-05-31T07:17:36.847Z,10.00
2017-05-31T07:20:05.904Z,9.52
2017-05-31T07:22:34.227Z,11.02
2017-05-31T07:25:02.768Z,10.14
2017-05-31T07:27:31.056Z,10.62
2017-05-31T07:30:00.121Z,10.66
2017-05-31T07:32:29.179Z,10.70
2017-05-31T07:34:58.222Z,10.54
2017-05-31T07:37:26.526Z,10.66
2017-05-31T07:39:55.605Z,10.08
2017-05-31T07:42:23.915Z,10.06
2017-05-31T07:44:52.975Z,11.72
2017-05-31T07:47:21.266Z,11.08
2017-05-31T07:49:50.443Z,9.56
2017-05-31T07:52:19.547Z,11.70
2017-05-31T07:54:48.025Z,11.52
2017-05-31T07:57:17.094Z,10.58
2017-05-31T07:59:46.170Z,10.58
2017-05-31T08:02:15.249Z,11.12
2017-05-31T08:04:44.296Z,10.14
2017-05-31T08:07:13.395Z,11.00
2017-05-31T08:09:42.440Z,9.34
2017-05-31T08:12:10.734Z,10.24
2017-05-31T08:14:40.003Z,9.20
2017-05-31T08:17:09.065Z,9.18
2017-05-31T08:19:38.153Z,9.60
2017-05-31T08:22:07.253Z,10.30
2017-05-31T08:24:35.549Z,9.08
2017-05-31T08:27:03.837Z,8.84
2017-05-31T08:29:33.045Z,10.12
2017-05-31T08:32:01.316Z,9.42
2017-05-31T08:34:29.605Z,9.54
2017-05-31T08:36:58.678Z,8.96
2017-05-31T08:39:27.729Z,8.40
2017-05-31T08:41:56.876Z,9.02
2017-05-31T08:44:25.951Z,9.10
2017-05-31T08:46:54.275Z,9.30
2017-05-31T08:49:23.326Z,7.64
2017-05-31T08:51:52.197Z,7.92
2017-05-31T08:54:21.260Z,7.50
2017-05-31T08:56:50.142Z,6.86
2017-05-31T08:59:19.252Z,8.16
2017-05-31T09:01:47.675Z,6.98
2017-05-31T09:04:15.976Z,7.70
2017-05-31T09:06:45.052Z,7.18
2017-05-31T09:09:14.131Z,7.10
2017-05-31T09:11:43.457Z,7.04
2017-05-31T09:14:11.757Z,6.72
2017-05-31T09:16:40.796Z,6.82
2017-05-31T09:19:09.853Z,5.30
2017-05-31T09:21:38.937Z,6.34
2017-05-31T09:24:07.983Z,5.90
2017-05-31T09:26:37.065Z,6.06
2017-05-31T09:29:06.100Z,6.34
2017-05-31T09:31:35.164Z,6.80
2017-05-31T09:34:03.472Z,5.86
2017-05-31T09:36:31.774Z,5.42
2017-05-31T09:39:00.820Z,7.20
2017-05-31T09:41:29.917Z,5.68
2017-05-31T09:43:58.967Z,5.56
2017-05-31T09:46:28.029Z,6.18
2017-05-31T09:48:57.129Z,5.82
2017-05-31T09:51:25.443Z,4.32
2017-05-31T09:53:54.492Z,4.28
2017-05-31T09:56:23.564Z,4.24
2017-05-31T09:58:52.691Z,5.48
2017-05-31T10:01:21.013Z,6.22
2017-05-31T10:03:50.281Z,5.14
2017-05-31T10:06:18.601Z,6.00
2017-05-31T10:08:47.669Z,6.88
2017-05-31T10:11:16.001Z,6.24
2017-05-31T10:13:44.308Z,5.70
2017-05-31T10:16:13.376Z,8.90
2017-05-31T10:18:42.445Z,5.98
2017-05-31T10:21:10.865Z,7.38
2017-05-31T10:23:39.880Z,6.02
2017-05-31T10:26:09.021Z,5.52
2017-05-31T10:28:38.059Z,5.60
2017-05-31T10:31:07.160Z,6.90
2017-05-31T10:33:35.455Z,7.82
2017-05-31T10:36:03.773Z,6.82
2017-05-31T10:38:32.815Z,6.82
2017-05-31T10:41:01.891Z,8.04
2017-05-31T10:43:30.192Z,8.08
2017-05-31T10:45:58.460Z,7.32
2017-05-31T10:48:27.629Z,7.52
2017-05-31T10:50:56.712Z,8.90
2017-05-31T10:53:25.020Z,9.62
2017-05-31T10:55:54.094Z,9.48
2017-05-31T10:58:23.745Z,7.68
2017-05-31T11:00:52.795Z,8.60
2017-05-31T11:03:21.124Z,9.32
2017-05-31T11:05:50.216Z,9.00
2017-05-31T11:08:19.291Z,8.12
2017-05-31T11:10:48.372Z,8.28
2017-05-31T11:13:16.693Z,9.10
2017-05-31T11:15:45.037Z,9.54
2017-05-31T11:18:14.133Z,9.88
2017-05-31T11:20:43.209Z,9.58
2017-05-31T11:23:11.545Z,9.00
2017-05-31T11:25:40.621Z,10.26
2017-05-31T11:28:08.916Z,10.88
2017-05-31T11:30:37.994Z,9.86
2017-05-31T11:33:07.072Z,10.04
2017-05-31T11:35:36.124Z,9.18
2017-05-31T11:38:05.189Z,11.12
2017-05-31T11:40:34.245Z,9.16
2017-05-31T11:43:02.531Z,10.06
2017-05-31T11:45:31.119Z,10.36
2017-05-31T11:47:59.404Z,10.02
2017-05-31T11:50:28.460Z,12.22
2017-05-31T11:52:57.615Z,11.58
2017-05-31T11:55:26.679Z,11.22
2017-05-31T11:57:55.743Z,10.22
2017-05-31T12:00:24.892Z,10.74
2017-05-31T12:02:53.936Z,10.62
2017-05-31T12:05:22.236Z,10.98
2017-05-31T12:07:51.465Z,9.70
2017-05-31T12:10:20.519Z,8.58
2017-05-31T12:12:51.007Z,8.32
2017-05-31T12:15:19.305Z,7.62
2017-05-31T12:17:48.681Z,7.54
2017-05-31T12:20:17.777Z,7.26
2017-05-31T12:22:46.083Z,7.24
2017-05-31T12:25:14.375Z,7.78
2017-05-31T12:27:43.457Z,9.08
2017-05-31T12:30:12.516Z,7.46
2017-05-31T12:32:41.560Z,9.98
2017-05-31T12:35:10.927Z,9.90
2017-05-31T12:37:39.966Z,8.40
2017-05-31T12:40:09.824Z,7.12
2017-05-31T12:42:38.123Z,8.60
2017-05-31T12:45:06.427Z,7.02
2017-05-31T12:47:35.459Z,6.82
2017-05-31T12:50:04.516Z,6.40
2017-05-31T12:52:32.844Z,5.54
2017-05-31T12:55:01.925Z,5.00
2017-05-31T12:57:30.961Z,5.00
2017-05-31T13:00:00.044Z,3.84
2017-05-31T13:02:28.360Z,4.86
2017-05-31T13:04:56.644Z,4.58
2017-05-31T13:07:25.709Z,5.98
2017-05-31T13:09:54.824Z,5.64
2017-05-31T13:12:23.873Z,5.94
2017-05-31T13:14:52.925Z,5.50
2017-05-31T13:17:21.233Z,6.24
2017-05-31T13:19:50.479Z,5.34
2017-05-31T13:22:18.760Z,5.66
2017-05-31T13:24:47.085Z,5.44
2017-05-31T13:27:15.397Z,6.22
2017-05-31T13:29:44.447Z,7.02
2017-05-31T13:32:12.728Z,5.86
2017-05-31T13:34:41.059Z,4.28
2017-05-31T13:37:09.359Z,5.16
2017-05-31T13:39:38.436Z,5.26
2017-05-31T13:42:07.505Z,5.16
2017-05-31T13:44:36.585Z,4.88
2017-05-31T13:47:05.670Z,5.58
2017-05-31T13:49:34.781Z,5.82
2017-05-31T13:52:03.136Z,5.32
2017-05-31T13:54:32.361Z,4.50
2017-05-31T13:57:00.646Z,5.74
2017-05-31T13:59:29.718Z,5.06
2017-05-31T14:01:58.933Z,4.96
2017-05-31T14:04:27.296Z,5.34
2017-05-31T14:06:56.454Z,5.58
2017-05-31T14:09:25.612Z,5.02
2017-05-31T14:11:54.684Z,5.68
2017-05-31T14:14:23.013Z,4.84
2017-05-31T14:16:52.083Z,5.92
2017-05-31T14:19:21.141Z,4.78
2017-05-31T14:21:49.451Z,4.60
2017-05-31T14:24:18.496Z,5.18
2017-05-31T14:26:46.763Z,6.00
2017-05-31T14:29:16.112Z,5.60
2017-05-31T14:31:44.405Z,4.62
2017-05-31T14:34:13.467Z,6.60
2017-05-31T14:36:42.749Z,5.52
2017-05-31T14:39:11.825Z,4.74
2017-05-31T14:41:40.870Z,4.90
2017-05-31T14:44:09.189Z,4.36
2017-05-31T14:46:38.256Z,4.46
2017-05-31T14:49:07.324Z,4.28
2017-05-31T14:51:36.403Z,5.18
2017-05-31T14:54:05.723Z,4.16
2017-05-31T14:56:34.793Z,4.52
2017-05-31T14:59:03.896Z,4.60
2017-05-31T15:01:32.948Z,5.02
2017-05-31T15:04:01.257Z,5.10
2017-05-31T15:06:30.343Z,5.16
2017-05-31T15:08:59.413Z,4.98
2017-05-31T15:11:28.474Z,5.30
2017-05-31T15:13:56.768Z,5.08
2017-05-31T15:16:25.831Z,5.10
2017-05-31T15:18:54.899Z,4.68
2017-05-31T15:21:23.201Z,4.84
2017-05-31T15:23:51.538Z,5.70
2017-05-31T15:26:20.628Z,5.96
2017-05-31T15:28:49.768Z,6.30
2017-05-31T15:31:18.837Z,5.62
2017-05-31T15:33:48.026Z,5.84
2017-05-31T15:36:16.312Z,6.86
2017-05-31T15:38:45.394Z,5.62
2017-05-31T15:41:14.445Z,6.00
2017-05-31T15:43:43.644Z,6.44
2017-05-31T15:46:12.000Z,6.10
2017-05-31T15:48:41.075Z,7.16
2017-05-31T15:51:09.383Z,7.14
2017-05-31T15:53:38.532Z,7.06
2017-05-31T15:56:07.694Z,7.48
2017-05-31T15:58:36.980Z,5.94
2017-05-31T16:01:06.044Z,5.58
2017-05-31T16:03:35.112Z,5.80
2017-05-31T16:06:04.196Z,7.08
2017-05-31T16:08:33.266Z,6.50
2017-05-31T16:11:03.180Z,7.18
2017-05-31T16:13:32.585Z,7.48
2017-05-31T16:16:01.668Z,6.84
2017-05-31T16:18:30.712Z,6.14
2017-05-31T16:20:59.070Z,6.28
2017-05-31T16:23:28.139Z,6.38
2017-05-31T16:25:57.219Z,6.90
2017-05-31T16:28:26.269Z,5.30
2017-05-31T16:30:54.617Z,5.52
2017-05-31T16:33:22.911Z,6.76
2017-05-31T16:35:52.411Z,5.78
2017-05-31T16:38:20.705Z,5.40
2017-05-31T16:40:50.428Z,6.08
2017-05-31T16:43:18.724Z,5.94
2017-05-31T16:45:47.789Z,5.70
2017-05-31T16:48:16.113Z,5.66
2017-05-31T16:50:45.163Z,6.24
2017-05-31T16:53:13.485Z,5.94
2017-05-31T16:55:42.536Z,6.46
2017-05-31T16:58:11.585Z,5.62
2017-05-31T17:00:40.654Z,6.12
2017-05-31T17:03:08.974Z,5.46
2017-05-31T17:05:37.273Z,5.42
2017-05-31T17:08:05.623Z,4.54
2017-05-31T17:10:34.672Z,5.12
2017-05-31T17:13:03.735Z,4.64
2017-05-31T17:15:32.061Z,4.54
2017-05-31T17:18:01.135Z,4.44
2017-05-31T17:20:30.826Z,5.16
2017-05-31T17:22:59.900Z,4.66
2017-05-31T17:25:28.985Z,4.50
2017-05-31T17:27:58.082Z,4.90
2017-05-31T17:30:27.179Z,3.86
2017-05-31T17:32:56.246Z,3.94
2017-05-31T17:35:25.316Z,4.84
2017-05-31T17:37:54.526Z,3.82
2017-05-31T17:40:23.596Z,4.02
2017-05-31T17:42:52.716Z,4.00
2017-05-31T17:45:21.778Z,3.88
2017-05-31T17:47:51.931Z,4.84
2017-05-31T17:50:21.073Z,4.60
2017-05-31T17:52:50.177Z,4.02
2017-05-31T17:55:19.253Z,4.90
2017-05-31T17:57:48.312Z,4.48
2017-05-31T18:00:17.454Z,4.44
2017-05-31T18:02:45.807Z,4.06
2017-05-31T18:05:14.140Z,3.76
2017-05-31T18:07:43.212Z,4.38
2017-05-31T18:10:12.581Z,4.38
2017-05-31T18:12:41.646Z,3.72
2017-05-31T18:15:10.703Z,3.92
2017-05-31T18:17:39.768Z,4.20
2017-05-31T18:20:09.158Z,3.76
2017-05-31T18:22:38.204Z,3.50
2017-05-31T18:25:07.282Z,3.46
2017-05-31T18:27:36.360Z,2.94
2017-05-31T18:30:05.426Z,3.24
2017-05-31T18:32:34.492Z,3.16
2017-05-31T18:35:04.252Z,3.54
2017-05-31T18:37:33.304Z,3.68
2017-05-31T18:40:02.353Z,3.20
2017-05-31T18:42:32.434Z,3.46
2017-05-31T18:45:00.907Z,3.52
2017-05-31T18:47:29.969Z,3.00
2017-05-31T18:49:59.279Z,3.10
2017-05-31T18:52:28.335Z,2.94
2017-05-31T18:54:58.472Z,3.30
2017-05-31T18:57:27.539Z,3.50
2017-05-31T18:59:56.606Z,2.70
2017-05-31T19:02:24.918Z,3.36
2017-05-31T19:04:54.064Z,3.02
2017-05-31T19:07:22.379Z,3.56
2017-05-31T19:09:51.702Z,3.62
2017-05-31T19:12:21.435Z,3.24
2017-05-31T19:14:49.711Z,3.06
2017-05-31T19:17:18.892Z,4.18
2017-05-31T19:19:48.185Z,3.02
2017-05-31T19:22:16.473Z,2.56
2017-05-31T19:24:44.838Z,2.88
2017-05-31T19:27:13.192Z,3.28
2017-05-31T19:29:42.261Z,3.44
2017-05-31T19:32:11.340Z,2.84
2017-05-31T19:34:39.654Z,2.68
2017-05-31T19:37:08.817Z,2.82
2017-05-31T19:39:37.875Z,3.32
2017-05-31T19:42:06.976Z,2.82
2017-05-31T19:44:36.048Z,3.00
2017-05-31T19:47:05.119Z,2.64
2017-05-31T19:49:34.184Z,2.50
2017-05-31T19:52:03.278Z,2.70
2017-05-31T19:54:32.339Z,2.90
2017-05-31T19:57:01.414Z,2.40
2017-05-31T19:59:30.497Z,2.50
2017-05-31T20:02:00.638Z,2.38
2017-05-31T20:04:29.735Z,3.56
2017-05-31T20:06:59.561Z,2.70
2017-05-31T20:09:28.651Z,2.82
2017-05-31T20:11:58.552Z,2.46
2017-05-31T20:14:27.907Z,2.52
2017-05-31T20:16:56.956Z,2.60
2017-05-31T20:19:26.036Z,2.72
2017-05-31T20:21:55.114Z,2.86
2017-05-31T20:24:24.173Z,2.38
2017-05-31T20:26:53.224Z,2.48
2017-05-31T20:29:22.438Z,2.38
2017-05-31T20:31:51.628Z,2.78
2017-05-31T20:34:20.687Z,2.72
2017-05-31T20:36:49.788Z,1.94
2017-05-31T20:39:18.844Z,2.62
2017-05-31T20:41:47.891Z,2.56
2017-05-31T20:44:16.966Z,2.12
2017-05-31T20:46:46.037Z,2.80
2017-05-31T20:49:15.099Z,2.46
2017-05-31T20:51:44.173Z,2.88
2017-05-31T20:54:13.250Z,2.54
2017-05-31T20:56:42.294Z,2.50
2017-05-31T20:59:11.401Z,2.40
2017-05-31T21:01:40.457Z,2.00
2017-05-31T21:04:09.558Z,2.44
2017-05-31T21:06:38.644Z,2.56
2017-05-31T21:09:08.070Z,2.40
2017-05-31T21:11:37.143Z,2.16
2017-05-31T21:14:06.285Z,3.00
2017-05-31T21:16:35.356Z,2.76
2017-05-31T21:19:05.302Z,2.70
2017-05-31T21:21:34.395Z,2.70
2017-05-31T21:24:03.467Z,2.64
2017-05-31T21:26:32.536Z,2.92
2017-05-31T21:29:01.609Z,3.90
2017-05-31T21:31:30.685Z,3.12
2017-05-31T21:33:59.751Z,3.30
2017-05-31T21:36:28.808Z,3.34
2017-05-31T21:38:57.884Z,2.96
2017-05-31T21:41:26.994Z,3.26
2017-05-31T21:43:56.055Z,3.08
2017-05-31T21:46:25.109Z,3.34
2017-05-31T21:48:54.181Z,3.54
2017-05-31T21:51:23.238Z,3.38
2017-05-31T21:53:52.379Z,3.14
2017-05-31T21:56:22.178Z,3.32
2017-05-31T21:58:51.623Z,2.72
2017-05-31T22:01:20.779Z,3.48
2017-05-31T22:03:49.850Z,3.30
2017-05-31T22:06:18.939Z,3.26
2017-05-31T22:08:47.992Z,3.24
2017-05-31T22:11:17.094Z,3.64
2017-05-31T22:13:46.185Z,4.08
2017-05-31T22:16:15.506Z,3.90
2017-05-31T22:18:44.591Z,3.72
2017-05-31T22:21:13.645Z,3.90
2017-05-31T22:23:42.717Z,3.66
2017-05-31T22:26:11.805Z,3.90
2017-05-31T22:28:40.853Z,3.76
2017-05-31T22:31:09.926Z,4.02
2017-05-31T22:33:38.988Z,4.22
2017-05-31T22:36:08.057Z,3.32
2017-05-31T22:38:37.125Z,3.52
2017-05-31T22:41:06.314Z,4.60
2017-05-31T22:43:35.755Z,3.86
2017-05-31T22:46:04.817Z,3.44
2017-05-31T22:48:33.865Z,3.84
2017-05-31T22:51:02.981Z,3.74
2017-05-31T22:53:32.068Z,3.72
2017-05-31T22:56:01.137Z,4.54
2017-05-31T22:58:30.188Z,3.56
2017-05-31T23:00:59.276Z,4.18
2017-05-31T23:03:28.345Z,4.26
2017-05-31T23:05:57.456Z,4.08
2017-05-31T23:08:26.518Z,3.74
2017-05-31T23:10:55.583Z,3.88
2017-05-31T23:13:24.653Z,4.14
2017-05-31T23:15:53.748Z,3.82
2017-05-31T23:18:22.894Z,3.96
2017-05-31T23:20:51.971Z,3.90
2017-05-31T23:23:21.019Z,4.06
2017-05-31T23:25:50.473Z,4.56
2017-05-31T23:28:19.815Z,4.40
2017-05-31T23:30:49.272Z,3.54
2017-05-31T23:33:18.332Z,3.96
2017-05-31T23:35:47.388Z,3.46
2017-05-31T23:38:16.454Z,4.74
2017-05-31T23:40:45.509Z,3.78
2017-05-31T23:43:14.613Z,3.98
2017-05-31T23:45:43.657Z,4.20
2017-05-31T23:48:12.758Z,3.78
2017-05-31T23:50:41.817Z,3.78
2017-05-31T23:53:10.877Z,4.48
2017-05-31T23:55:39.952Z,4.84
2017-05-31T23:58:09.039Z,4.72
